Terminal Aerodrome Forecast
Issued by NWS

Home | Current Version | Previous Version | Text Only | Print | Product List | Glossary On
Versions: 1 2 3 4 5 6 7 8 9 10 11 12 13 14
000
FTUS42 TJSJ 022343
TAFJPS
TAF
TJPS 022343Z 0300/0324 VRB05KT P6SM SCT030 SCT090
     FM031400 13010KT P6SM VCSH SCT030 BKN060
     FM032330 08005KT P6SM FEW030 SCT050=

USA.gov is the U.S. government's official web portal to all federal, state and local government web resources and services.